createdAt,value
2023-04-04T00:00:16.609Z,53.29
2023-04-04T00:02:43.035Z,53.64
2023-04-04T00:05:09.739Z,53.29
2023-04-04T00:07:36.451Z,53.12
2023-04-04T00:10:03.007Z,53.04
2023-04-04T00:12:29.985Z,52.63
2023-04-04T00:14:57.513Z,52.84
2023-04-04T00:17:24.150Z,52.49
2023-04-04T00:19:50.644Z,51.64
2023-04-04T00:22:18.437Z,52.38
2023-04-04T00:24:44.817Z,52.53
2023-04-04T00:27:11.658Z,51.89
2023-04-04T00:29:38.041Z,52.29
2023-04-04T00:32:04.535Z,51.43
2023-04-04T00:34:31.232Z,52.05
2023-04-04T00:36:58.918Z,51.79
2023-04-04T00:39:26.533Z,51.91
2023-04-04T00:41:53.296Z,52.17
2023-04-04T00:44:20.466Z,51.84
2023-04-04T00:46:46.919Z,51.56
2023-04-04T00:49:13.373Z,51.55
2023-04-04T00:51:39.768Z,51.68
2023-04-04T00:54:06.458Z,51.99
2023-04-04T00:56:35.840Z,51.62
2023-04-04T00:59:02.770Z,52.17
2023-04-04T01:01:31.524Z,52.78
2023-04-04T01:03:58.089Z,51.57
2023-04-04T01:06:24.938Z,51.84
2023-04-04T01:08:52.933Z,52.02
2023-04-04T01:11:19.346Z,52.32
2023-04-04T01:13:48.092Z,52.41
2023-04-04T01:16:14.566Z,53.30
2023-04-04T01:18:43.043Z,53.28
2023-04-04T01:21:17.021Z,53.01
2023-04-04T01:23:55.912Z,52.24
2023-04-04T01:26:23.660Z,52.58
2023-04-04T01:28:50.334Z,53.11
2023-04-04T01:31:23.062Z,53.26
2023-04-04T01:34:08.575Z,52.73
2023-04-04T01:36:40.233Z,53.11
2023-04-04T01:39:21.536Z,53.31
2023-04-04T01:41:49.326Z,51.77
2023-04-04T01:44:19.294Z,52.80
2023-04-04T01:46:45.746Z,53.42
2023-04-04T01:49:12.129Z,53.18
2023-04-04T01:51:39.127Z,53.67
2023-04-04T01:54:05.952Z,53.94
2023-04-04T01:56:32.903Z,54.23
2023-04-04T01:58:59.400Z,53.88
2023-04-04T02:01:25.818Z,53.31
2023-04-04T02:03:52.836Z,53.42
2023-04-04T02:06:19.379Z,53.84
2023-04-04T02:08:45.913Z,53.20
2023-04-04T02:11:12.344Z,53.51
2023-04-04T02:13:41.393Z,53.69
2023-04-04T02:16:07.868Z,54.71
2023-04-04T02:18:34.382Z,54.39
2023-04-04T02:21:00.742Z,54.72
2023-04-04T02:23:27.140Z,54.57
2023-04-04T02:25:53.600Z,54.74
2023-04-04T02:28:20.106Z,54.88
2023-04-04T02:30:47.076Z,55.10
2023-04-04T02:35:59.003Z,54.84
2023-04-04T02:38:26.586Z,54.61
2023-04-04T02:40:53.373Z,54.85
2023-04-04T02:43:20.381Z,54.69
2023-04-04T02:45:49.866Z,54.74
2023-04-04T02:48:16.365Z,54.76
2023-04-04T02:50:43.013Z,54.96
2023-04-04T02:53:09.748Z,54.83
2023-04-04T02:55:36.148Z,55.51
2023-04-04T02:58:02.778Z,55.46
2023-04-04T03:00:29.517Z,56.11
2023-04-04T03:02:57.420Z,55.34
2023-04-04T03:05:25.176Z,56.04
2023-04-04T03:07:58.454Z,55.71
2023-04-04T03:10:27.014Z,56.18
2023-04-04T03:12:53.634Z,56.01
2023-04-04T03:15:20.445Z,55.63
2023-04-04T03:17:47.033Z,55.95
2023-04-04T03:20:15.295Z,55.84
2023-04-04T03:22:42.289Z,56.25
2023-04-04T03:25:09.733Z,56.72
2023-04-04T03:27:36.326Z,57.13
2023-04-04T03:30:03.896Z,56.65
2023-04-04T03:32:31.503Z,56.49
2023-04-04T03:34:58.253Z,57.10
2023-04-04T03:37:24.809Z,56.74
2023-04-04T03:39:51.254Z,56.71
2023-04-04T03:42:17.645Z,56.99
2023-04-04T03:44:44.006Z,57.57
2023-04-04T03:47:10.444Z,57.08
2023-04-04T03:49:36.884Z,57.31
2023-04-04T03:52:03.368Z,57.40
2023-04-04T03:54:30.109Z,57.55
2023-04-04T03:56:57.549Z,57.19
2023-04-04T03:59:24.390Z,57.06
2023-04-04T04:01:51.011Z,57.75
2023-04-04T04:04:17.427Z,57.75
2023-04-04T04:06:44.226Z,57.80
2023-04-04T04:09:12.235Z,57.90
2023-04-04T04:11:38.632Z,57.81
2023-04-04T04:14:05.126Z,57.62
2023-04-04T04:16:32.826Z,57.58
2023-04-04T04:18:59.471Z,57.69
2023-04-04T04:21:26.199Z,57.49
2023-04-04T04:23:52.626Z,58.62
2023-04-04T04:26:19.037Z,58.97
2023-04-04T04:28:45.912Z,58.34
2023-04-04T04:31:12.334Z,58.48
2023-04-04T04:33:38.725Z,58.32
2023-04-04T04:36:07.220Z,58.12
2023-04-04T04:38:34.016Z,58.02
2023-04-04T04:41:00.642Z,58.29
2023-04-04T04:43:27.661Z,58.09
2023-04-04T04:45:54.323Z,57.90
2023-04-04T04:48:20.977Z,58.37
2023-04-04T04:50:48.080Z,57.69
2023-04-04T04:53:14.655Z,58.12
2023-04-04T04:55:43.027Z,58.10
2023-04-04T04:58:10.738Z,58.46
2023-04-04T05:00:38.308Z,58.23
2023-04-04T05:03:08.268Z,58.62
2023-04-04T05:05:34.809Z,58.64
2023-04-04T05:08:02.607Z,59.09
2023-04-04T05:10:30.054Z,59.08
2023-04-04T05:12:56.554Z,59.46
2023-04-04T05:15:23.312Z,59.15
2023-04-04T05:17:49.759Z,59.54
2023-04-04T05:20:16.276Z,59.97
2023-04-04T05:22:44.316Z,59.52
2023-04-04T05:25:12.780Z,59.63
2023-04-04T05:27:39.973Z,59.60
2023-04-04T05:30:09.946Z,59.78
2023-04-04T05:32:36.538Z,59.51
2023-04-04T05:35:03.153Z,59.24
2023-04-04T05:37:29.600Z,58.78
2023-04-04T05:39:56.453Z,58.62
2023-04-04T05:42:23.225Z,58.62
2023-04-04T05:44:49.648Z,58.62
2023-04-04T05:47:16.017Z,58.44
2023-04-04T05:49:42.382Z,56.30
2023-04-04T05:52:11.329Z,57.80
2023-04-04T05:54:37.725Z,55.83
2023-04-04T05:57:04.126Z,57.53
2023-04-04T05:59:30.626Z,57.81
2023-04-04T06:01:57.531Z,57.76
2023-04-04T06:04:23.965Z,57.11
2023-04-04T06:06:50.663Z,55.67
2023-04-04T06:09:17.691Z,55.64
2023-04-04T06:11:44.172Z,55.80
2023-04-04T06:14:11.077Z,55.46
2023-04-04T06:16:38.020Z,54.72
2023-04-04T06:19:04.402Z,55.86
2023-04-04T06:21:30.868Z,54.81
2023-04-04T06:23:57.342Z,54.55
2023-04-04T06:26:23.871Z,54.14
2023-04-04T06:28:50.879Z,54.88
2023-04-04T06:31:17.764Z,54.93
2023-04-04T06:33:44.270Z,55.40
2023-04-04T06:36:10.871Z,53.54
2023-04-04T06:38:37.300Z,53.60
2023-04-04T06:41:04.684Z,54.31
2023-04-04T06:43:31.186Z,54.87
2023-04-04T06:45:57.842Z,52.96
2023-04-04T06:48:24.259Z,53.87
2023-04-04T06:50:51.183Z,52.49
2023-04-04T06:53:17.761Z,52.68
2023-04-04T06:55:44.200Z,51.11
2023-04-04T06:58:10.647Z,51.89
2023-04-04T07:00:37.344Z,51.65
2023-04-04T07:03:04.320Z,51.12
2023-04-04T07:05:32.100Z,49.34
2023-04-04T07:07:58.559Z,48.98
2023-04-04T07:10:25.496Z,47.42
2023-04-04T07:12:52.046Z,47.57
2023-04-04T07:15:18.504Z,46.89
2023-04-04T07:17:44.888Z,46.65
2023-04-04T07:20:11.858Z,48.08
2023-04-04T07:22:42.433Z,49.74
2023-04-04T07:25:09.681Z,49.24
2023-04-04T07:27:36.670Z,47.56
2023-04-04T07:30:04.632Z,47.31
2023-04-04T07:32:31.178Z,45.83
2023-04-04T07:34:57.880Z,44.44
2023-04-04T07:37:26.530Z,45.14
2023-04-04T07:39:53.096Z,45.10
2023-04-04T07:42:23.458Z,44.92
2023-04-04T07:44:50.611Z,45.30
2023-04-04T07:47:17.989Z,45.38
2023-04-04T07:49:44.873Z,44.34
2023-04-04T07:52:11.275Z,45.79
2023-04-04T07:54:37.676Z,45.76
2023-04-04T07:57:06.504Z,45.62
2023-04-04T07:59:33.120Z,45.80
2023-04-04T08:01:59.498Z,45.49
2023-04-04T08:04:26.191Z,44.37
2023-04-04T08:06:53.134Z,44.38
2023-04-04T08:09:19.598Z,44.60
2023-04-04T08:11:46.341Z,45.48
2023-04-04T08:14:13.116Z,45.16
2023-04-04T08:16:40.084Z,44.81
2023-04-04T08:19:08.028Z,45.10
2023-04-04T08:21:34.407Z,46.97
2023-04-04T08:24:00.774Z,48.00
2023-04-04T08:26:27.174Z,48.66
2023-04-04T08:28:53.883Z,48.80
2023-04-04T08:31:20.323Z,48.93
2023-04-04T08:33:47.988Z,49.20
2023-04-04T08:36:15.051Z,49.42
2023-04-04T08:38:41.647Z,50.25
2023-04-04T08:41:08.563Z,50.43
2023-04-04T08:43:38.117Z,50.06
2023-04-04T08:46:05.964Z,47.64
2023-04-04T08:48:33.935Z,47.04
2023-04-04T08:51:00.546Z,46.28
2023-04-04T08:53:29.384Z,45.90
2023-04-04T08:55:59.608Z,46.66
2023-04-04T08:58:27.322Z,46.01
2023-04-04T09:00:55.082Z,46.17
2023-04-04T09:03:27.110Z,46.07
2023-04-04T09:05:55.495Z,46.25
2023-04-04T09:08:24.841Z,46.71
2023-04-04T09:10:52.375Z,46.46
2023-04-04T09:13:19.204Z,46.68
2023-04-04T09:15:51.232Z,46.38
2023-04-04T09:18:18.129Z,46.38
2023-04-04T09:20:48.706Z,46.27
2023-04-04T09:23:23.785Z,46.02
2023-04-04T09:28:23.117Z,46.20
2023-04-04T09:30:51.149Z,46.78
2023-04-04T09:33:19.749Z,46.86
2023-04-04T09:35:52.572Z,46.33
2023-04-04T09:38:24.088Z,45.57
2023-04-04T09:40:52.505Z,46.71
2023-04-04T09:43:22.113Z,46.64
2023-04-04T09:45:49.290Z,46.05
2023-04-04T09:48:32.999Z,44.82
2023-04-04T09:50:59.731Z,45.16
2023-04-04T09:53:26.582Z,45.96
2023-04-04T09:55:57.225Z,45.34
2023-04-04T09:58:29.078Z,43.92
2023-04-04T10:00:59.552Z,45.06
2023-04-04T10:03:27.691Z,45.53
2023-04-04T10:06:00.221Z,45.74
2023-04-04T10:08:28.636Z,44.52
2023-04-04T10:11:11.397Z,45.24
2023-04-04T10:13:41.479Z,44.51
2023-04-04T10:16:10.537Z,44.42
2023-04-04T10:18:37.328Z,44.41
2023-04-04T10:21:15.753Z,44.97
2023-04-04T10:23:45.826Z,43.95
2023-04-04T10:26:13.441Z,45.24
2023-04-04T10:28:40.282Z,45.03
2023-04-04T10:31:22.157Z,43.67
2023-04-04T10:33:57.602Z,43.06
2023-04-04T10:36:28.110Z,43.47
2023-04-04T10:39:14.935Z,43.83
2023-04-04T10:41:42.176Z,43.87
2023-04-04T10:44:30.239Z,42.97
2023-04-04T10:46:59.630Z,43.29
2023-04-04T10:49:27.749Z,43.44
2023-04-04T10:51:57.213Z,43.82
2023-04-04T10:54:26.725Z,43.54
2023-04-04T10:56:55.072Z,43.56
2023-04-04T10:59:25.102Z,44.07
2023-04-04T11:01:59.741Z,43.50
2023-04-04T11:04:33.376Z,43.87
2023-04-04T11:07:19.120Z,43.65
2023-04-04T11:09:56.670Z,43.15
2023-04-04T11:12:27.147Z,43.67
2023-04-04T11:15:00.879Z,43.55
2023-04-04T11:17:49.289Z,44.38
2023-04-04T11:20:21.526Z,44.63
2023-04-04T11:23:12.473Z,43.53
2023-04-04T11:25:59.526Z,42.65
2023-04-04T11:28:34.989Z,43.13
2023-04-04T11:31:20.459Z,41.84
2023-04-04T11:34:09.738Z,42.82
2023-04-04T11:36:36.227Z,42.92
2023-04-04T11:39:22.883Z,42.21
2023-04-04T11:41:52.306Z,42.25
2023-04-04T11:44:21.287Z,42.70
2023-04-04T11:46:50.960Z,43.17
2023-04-04T11:49:18.696Z,43.45
2023-04-04T11:51:45.730Z,43.80
2023-04-04T11:54:16.716Z,44.18
2023-04-04T11:56:46.927Z,43.80
2023-04-04T11:59:19.190Z,43.38
2023-04-04T12:01:46.119Z,43.46
2023-04-04T12:04:14.647Z,43.65
2023-04-04T12:06:42.936Z,43.96
2023-04-04T12:09:13.158Z,43.72
2023-04-04T12:11:40.299Z,43.33
2023-04-04T12:14:07.628Z,43.65
2023-04-04T12:16:35.833Z,44.19
2023-04-04T12:19:02.337Z,43.88
2023-04-04T12:21:31.905Z,44.23
2023-04-04T12:23:58.539Z,43.88
2023-04-04T12:26:29.631Z,42.97
2023-04-04T12:28:58.169Z,43.32
2023-04-04T12:31:26.680Z,42.18
2023-04-04T12:33:53.345Z,41.23
2023-04-04T12:36:20.692Z,41.78
2023-04-04T12:39:05.937Z,40.95
2023-04-04T12:41:34.005Z,40.76
2023-04-04T12:44:02.702Z,40.71
2023-04-04T12:46:36.056Z,40.53
2023-04-04T12:49:04.111Z,40.91
2023-04-04T12:51:33.363Z,41.73
2023-04-04T12:54:00.108Z,41.94
2023-04-04T12:56:28.302Z,40.28
2023-04-04T12:59:03.342Z,39.27
2023-04-04T13:01:33.582Z,39.97
2023-04-04T13:04:04.340Z,40.27
2023-04-04T13:06:32.283Z,40.03
2023-04-04T13:08:58.970Z,40.66
2023-04-04T13:11:27.401Z,40.23
2023-04-04T13:14:03.815Z,39.55
2023-04-04T13:16:33.818Z,40.31
2023-04-04T13:19:00.196Z,40.09
2023-04-04T13:21:26.887Z,40.28
2023-04-04T13:23:53.296Z,39.88
2023-04-04T13:26:19.732Z,40.09
2023-04-04T13:28:46.120Z,41.02
2023-04-04T13:31:13.649Z,40.15
2023-04-04T13:33:40.194Z,40.58
2023-04-04T13:36:06.783Z,39.92
2023-04-04T13:38:33.190Z,40.48
2023-04-04T13:41:00.625Z,40.85
2023-04-04T13:43:27.556Z,40.25
2023-04-04T13:45:55.557Z,40.71
2023-04-04T13:48:22.755Z,39.96
2023-04-04T13:50:53.418Z,38.99
2023-04-04T13:53:20.055Z,39.40
2023-04-04T13:56:13.215Z,40.34
2023-04-04T13:58:33.176Z,40.84
2023-04-04T14:01:03.600Z,40.70
2023-04-04T14:03:30.574Z,39.58
2023-04-04T14:05:57.392Z,39.38
2023-04-04T14:08:23.984Z,39.01
2023-04-04T14:10:50.426Z,39.69
2023-04-04T14:13:16.863Z,39.50
2023-04-04T14:15:43.314Z,39.76
2023-04-04T14:18:10.492Z,39.83
2023-04-04T14:20:37.959Z,40.05
2023-04-04T14:23:04.368Z,39.99
2023-04-04T14:25:30.902Z,40.83
2023-04-04T14:27:57.279Z,40.25
2023-04-04T14:30:23.744Z,40.80
2023-04-04T14:32:51.307Z,40.17
2023-04-04T14:35:17.905Z,39.32
2023-04-04T14:37:44.311Z,39.94
2023-04-04T14:40:10.938Z,39.89
2023-04-04T14:42:37.388Z,39.66
2023-04-04T14:45:07.526Z,38.97
2023-04-04T14:47:35.399Z,39.55
2023-04-04T14:50:01.901Z,39.36
2023-04-04T14:52:31.307Z,39.30
2023-04-04T14:54:58.187Z,39.81
2023-04-04T14:57:24.637Z,39.67
2023-04-04T14:59:51.363Z,39.85
2023-04-04T15:02:18.224Z,39.49
2023-04-04T15:04:44.815Z,39.94
2023-04-04T15:07:11.720Z,39.85
2023-04-04T15:09:38.104Z,39.80
2023-04-04T15:12:04.917Z,40.15
2023-04-04T15:14:31.292Z,40.34
2023-04-04T15:16:57.743Z,40.61
2023-04-04T15:19:24.163Z,40.73
2023-04-04T15:21:50.813Z,40.74
2023-04-04T15:24:17.212Z,40.55
2023-04-04T15:26:43.770Z,39.31
2023-04-04T15:29:10.241Z,39.60
2023-04-04T15:31:36.721Z,39.47
2023-04-04T15:34:03.149Z,39.46
2023-04-04T15:36:29.628Z,39.76
2023-04-04T15:38:56.279Z,40.02
2023-04-04T15:41:23.457Z,39.94
2023-04-04T15:43:49.847Z,40.45
2023-04-04T15:46:17.331Z,40.65
2023-04-04T15:48:43.750Z,40.10
2023-04-04T15:51:10.814Z,40.70
2023-04-04T15:53:37.259Z,40.17
2023-04-04T15:56:03.674Z,40.10
2023-04-04T15:58:30.040Z,39.89
2023-04-04T16:01:00.196Z,39.13
2023-04-04T16:03:26.809Z,39.60
2023-04-04T16:05:53.930Z,38.88
2023-04-04T16:08:20.357Z,39.85
2023-04-04T16:10:47.300Z,40.14
2023-04-04T16:13:14.081Z,39.87
2023-04-04T16:15:40.810Z,39.96
2023-04-04T16:18:07.454Z,39.85
2023-04-04T16:20:35.424Z,39.81
2023-04-04T16:23:01.832Z,40.30
2023-04-04T16:25:28.383Z,40.26
2023-04-04T16:27:54.820Z,40.29
2023-04-04T16:30:21.248Z,39.73
2023-04-04T16:32:47.877Z,39.84
2023-04-04T16:35:14.314Z,39.33
2023-04-04T16:37:40.796Z,39.52
2023-04-04T16:40:08.290Z,39.92
2023-04-04T16:42:34.723Z,39.66
2023-04-04T16:45:01.124Z,39.33
2023-04-04T16:47:28.365Z,39.57
2023-04-04T16:49:55.027Z,39.89
2023-04-04T16:52:21.973Z,40.13
2023-04-04T16:54:48.447Z,41.05
2023-04-04T16:57:14.845Z,40.98
2023-04-04T16:59:41.268Z,40.55
2023-04-04T17:02:08.348Z,40.03
2023-04-04T17:04:35.061Z,41.06
2023-04-04T17:07:02.513Z,40.26
2023-04-04T17:09:28.875Z,40.21
2023-04-04T17:11:58.329Z,39.67
2023-04-04T17:14:26.112Z,40.53
2023-04-04T17:16:53.282Z,40.19
2023-04-04T17:19:19.817Z,40.01
2023-04-04T17:21:46.958Z,40.08
2023-04-04T17:24:13.535Z,40.19
2023-04-04T17:26:40.000Z,39.76
2023-04-04T17:29:06.655Z,40.29
2023-04-04T17:31:33.393Z,40.06
2023-04-04T17:33:59.826Z,40.05
2023-04-04T17:36:27.129Z,40.43
2023-04-04T17:38:53.609Z,40.82
2023-04-04T17:41:20.045Z,41.05
2023-04-04T17:43:46.452Z,40.57
2023-04-04T17:46:12.837Z,40.87
2023-04-04T17:48:39.267Z,40.75
2023-04-04T17:51:07.858Z,40.63
2023-04-04T17:53:34.920Z,41.09
2023-04-04T17:56:01.306Z,41.13
2023-04-04T17:58:28.556Z,41.74
2023-04-04T18:00:56.242Z,40.87
2023-04-04T18:03:26.408Z,40.59
2023-04-04T18:05:52.877Z,41.31
2023-04-04T18:08:19.842Z,41.41
2023-04-04T18:10:46.243Z,41.37
2023-04-04T18:13:13.448Z,41.43
2023-04-04T18:15:40.171Z,41.67
2023-04-04T18:18:06.792Z,41.77
2023-04-04T18:20:35.498Z,41.95
2023-04-04T18:23:04.180Z,42.18
2023-04-04T18:25:31.668Z,42.40
2023-04-04T18:27:58.393Z,42.03
2023-04-04T18:30:26.592Z,42.27
2023-04-04T18:32:53.032Z,42.42
2023-04-04T18:35:19.416Z,42.46
2023-04-04T18:37:46.063Z,42.62
2023-04-04T18:40:13.102Z,43.08
2023-04-04T18:42:39.693Z,42.92
2023-04-04T18:45:08.145Z,43.04
2023-04-04T18:47:34.694Z,43.04
2023-04-04T18:50:01.461Z,42.84
2023-04-04T18:52:27.849Z,43.28
2023-04-04T18:54:54.265Z,43.69
2023-04-04T18:57:21.662Z,43.30
2023-04-04T18:59:48.054Z,43.53
2023-04-04T19:02:14.444Z,43.24
2023-04-04T19:04:41.115Z,44.06
2023-04-04T19:07:07.713Z,44.24
2023-04-04T19:09:35.993Z,44.13
2023-04-04T19:12:03.474Z,44.39
2023-04-04T19:14:30.151Z,44.50
2023-04-04T19:16:56.670Z,44.86
2023-04-04T19:19:23.094Z,45.03
2023-04-04T19:21:49.690Z,45.15
2023-04-04T19:24:16.213Z,45.30
2023-04-04T19:26:43.398Z,45.56
2023-04-04T19:29:09.773Z,46.03
2023-04-04T19:31:36.306Z,46.44
2023-04-04T19:34:03.730Z,45.96
2023-04-04T19:36:35.788Z,46.49
2023-04-04T19:39:02.172Z,47.03
2023-04-04T19:41:39.138Z,47.47
2023-04-04T19:44:13.319Z,47.14
2023-04-04T19:46:40.510Z,47.20
2023-04-04T19:49:14.144Z,47.49
2023-04-04T19:51:52.438Z,47.45
2023-04-04T19:54:24.411Z,47.87
2023-04-04T19:56:54.448Z,47.81
2023-04-04T19:59:44.024Z,48.16
2023-04-04T20:02:42.469Z,48.62
2023-04-04T20:05:32.110Z,48.72
2023-04-04T20:07:59.878Z,48.48
2023-04-04T20:10:41.467Z,48.94
2023-04-04T20:13:08.721Z,49.03
2023-04-04T20:15:59.829Z,49.53
2023-04-04T20:18:28.787Z,49.68
2023-04-04T20:21:07.565Z,50.14
2023-04-04T20:23:45.439Z,50.19
2023-04-04T20:26:15.966Z,50.26
2023-04-04T20:28:46.519Z,50.41
2023-04-04T20:31:18.031Z,50.90
2023-04-04T20:33:44.529Z,51.26
2023-04-04T20:36:19.884Z,51.47
2023-04-04T20:38:47.358Z,51.50
2023-04-04T20:41:24.572Z,52.13
2023-04-04T20:43:56.343Z,51.95
2023-04-04T20:46:24.700Z,52.64
2023-04-04T20:48:54.148Z,52.49
2023-04-04T20:51:25.800Z,52.73
2023-04-04T20:53:53.573Z,53.28
2023-04-04T20:56:35.924Z,53.56
2023-04-04T20:59:02.295Z,53.00
2023-04-04T21:01:28.819Z,53.45
2023-04-04T21:03:57.061Z,53.52
2023-04-04T21:06:29.458Z,53.87
2023-04-04T21:08:56.055Z,53.92
2023-04-04T21:11:28.843Z,54.02
2023-04-04T21:13:56.561Z,54.10
2023-04-04T21:16:25.782Z,54.10
2023-04-04T21:19:00.988Z,54.37
2023-04-04T21:21:28.117Z,54.20
2023-04-04T21:24:00.205Z,54.34
2023-04-04T21:26:28.353Z,54.29
2023-04-04T21:28:56.497Z,54.47
2023-04-04T21:31:25.113Z,54.95
2023-04-04T21:33:54.037Z,54.91
2023-04-04T21:36:23.349Z,54.95
2023-04-04T21:38:51.660Z,55.13
2023-04-04T21:41:27.685Z,54.90
2023-04-04T21:43:56.942Z,55.09
2023-04-04T21:46:26.658Z,55.57
2023-04-04T21:48:53.914Z,55.82
2023-04-04T21:51:20.321Z,55.39
2023-04-04T21:53:47.455Z,56.13
2023-04-04T21:56:14.116Z,56.41
2023-04-04T21:58:41.461Z,56.24
2023-04-04T22:01:08.146Z,56.69
2023-04-04T22:03:37.124Z,56.59
2023-04-04T22:06:03.987Z,57.05
2023-04-04T22:08:30.865Z,56.85
2023-04-04T22:10:58.828Z,56.90
2023-04-04T22:13:30.969Z,56.77
2023-04-04T22:16:00.877Z,56.59
2023-04-04T22:18:33.005Z,56.82
2023-04-04T22:21:06.918Z,56.52
2023-04-04T22:23:36.283Z,56.28
2023-04-04T22:26:05.115Z,56.30
2023-04-04T22:28:36.263Z,56.66
2023-04-04T22:31:03.482Z,56.82
2023-04-04T22:33:30.375Z,56.79
2023-04-04T22:36:00.676Z,56.85
2023-04-04T22:38:29.123Z,56.86
2023-04-04T22:40:59.584Z,57.15
2023-04-04T22:43:26.446Z,57.13
2023-04-04T22:45:53.224Z,57.30
2023-04-04T22:48:23.258Z,57.04
2023-04-04T22:50:51.300Z,57.51
2023-04-04T22:53:24.605Z,57.33
2023-04-04T22:55:58.462Z,57.87
2023-04-04T22:58:25.445Z,57.81
2023-04-04T23:00:51.965Z,57.68
2023-04-04T23:03:18.932Z,58.19
2023-04-04T23:05:45.328Z,58.17
2023-04-04T23:08:11.829Z,58.37
2023-04-04T23:10:38.523Z,58.08
2023-04-04T23:13:05.531Z,58.63
2023-04-04T23:15:35.489Z,59.02
2023-04-04T23:18:02.432Z,59.34
2023-04-04T23:20:32.009Z,60.12
2023-04-04T23:22:58.714Z,59.77
2023-04-04T23:25:26.330Z,60.25
2023-04-04T23:27:53.390Z,60.00
2023-04-04T23:30:20.420Z,59.64
2023-04-04T23:32:46.871Z,59.47
2023-04-04T23:35:13.348Z,59.64
2023-04-04T23:37:40.108Z,59.31
2023-04-04T23:40:07.124Z,59.44
2023-04-04T23:42:33.803Z,59.75
2023-04-04T23:45:02.059Z,59.92
2023-04-04T23:47:28.655Z,59.66
2023-04-04T23:49:55.120Z,59.35
2023-04-04T23:52:21.880Z,59.79
2023-04-04T23:54:48.239Z,59.86
2023-04-04T23:57:14.984Z,59.74
2023-04-04T23:59:41.415Z,59.51
